createdAt,value
2019-03-12T00:00:17.212Z,1.70
2019-03-12T00:02:48.669Z,1.00
2019-03-12T00:05:19.197Z,1.50
2019-03-12T00:07:50.028Z,1.60
2019-03-12T00:10:20.584Z,1.40
2019-03-12T00:12:51.030Z,1.43
2019-03-12T00:15:21.468Z,1.30
2019-03-12T00:17:51.941Z,1.03
2019-03-12T00:20:22.396Z,1.40
2019-03-12T00:22:53.087Z,1.20
2019-03-12T00:25:23.561Z,1.60
2019-03-12T00:27:54.023Z,1.37
2019-03-12T00:30:24.484Z,1.30
2019-03-12T00:32:55.898Z,1.30
2019-03-12T00:35:26.658Z,1.53
2019-03-12T00:37:57.097Z,1.40
2019-03-12T00:40:27.524Z,1.23
2019-03-12T00:42:58.084Z,1.37
2019-03-12T00:45:29.594Z,1.50
2019-03-12T00:48:00.146Z,1.60
2019-03-12T00:50:30.625Z,1.50
2019-03-12T00:53:01.113Z,1.40
2019-03-12T00:55:31.668Z,1.60
2019-03-12T00:58:02.106Z,1.40
2019-03-12T01:00:32.585Z,1.40
2019-03-12T01:03:03.190Z,1.50
2019-03-12T01:05:33.988Z,1.37
2019-03-12T01:08:04.440Z,1.80
2019-03-12T01:10:34.956Z,1.33
2019-03-12T01:13:17.173Z,1.23
2019-03-12T01:15:47.624Z,1.57
2019-03-12T01:18:18.129Z,1.50
2019-03-12T01:20:49.152Z,1.67
2019-03-12T01:23:19.684Z,1.53
2019-03-12T01:25:50.385Z,1.50
2019-03-12T01:28:20.868Z,1.20
2019-03-12T01:30:51.316Z,1.83
2019-03-12T01:33:21.820Z,1.40
2019-03-12T01:35:52.256Z,1.73
2019-03-12T01:38:22.712Z,1.50
2019-03-12T01:40:53.460Z,1.30
2019-03-12T01:43:23.909Z,1.20
2019-03-12T01:45:54.485Z,1.27
2019-03-12T01:48:24.927Z,1.27
2019-03-12T01:50:55.486Z,1.40
2019-03-12T01:53:25.992Z,1.60
2019-03-12T01:55:56.483Z,1.70
2019-03-12T01:58:26.905Z,1.13
2019-03-12T02:00:57.346Z,1.33
2019-03-12T02:03:27.815Z,1.40
2019-03-12T02:05:58.296Z,1.40
2019-03-12T02:08:29.192Z,1.93
2019-03-12T02:10:59.974Z,2.00
2019-03-12T02:13:30.436Z,1.57
2019-03-12T02:16:00.920Z,2.00
2019-03-12T02:18:31.416Z,1.60
2019-03-12T02:21:01.853Z,1.40
2019-03-12T02:23:32.297Z,1.67
2019-03-12T02:26:02.849Z,1.40
2019-03-12T02:28:33.330Z,1.30
2019-03-12T02:31:03.995Z,2.07
2019-03-12T02:33:34.778Z,1.10
2019-03-12T02:36:05.244Z,1.10
2019-03-12T02:38:35.948Z,2.10
2019-03-12T02:41:06.492Z,1.43
2019-03-12T02:43:36.941Z,1.57
2019-03-12T02:46:07.374Z,1.30
2019-03-12T02:48:38.164Z,1.43
2019-03-12T02:51:08.630Z,1.60
2019-03-12T02:53:39.114Z,1.90
2019-03-12T02:56:09.605Z,1.67
2019-03-12T02:58:40.055Z,1.43
2019-03-12T03:01:10.587Z,1.30
2019-03-12T03:03:41.127Z,1.60
2019-03-12T03:06:18.292Z,1.47
2019-03-12T03:08:48.777Z,1.40
2019-03-12T03:11:19.189Z,1.40
2019-03-12T03:13:50.026Z,1.43
2019-03-12T03:16:23.914Z,1.50
2019-03-12T03:18:52.616Z,1.33
2019-03-12T03:21:23.148Z,1.30
2019-03-12T03:23:54.204Z,1.60
2019-03-12T03:26:24.740Z,1.67
2019-03-12T03:28:55.554Z,1.53
2019-03-12T03:31:25.999Z,1.57
2019-03-12T03:33:57.163Z,1.40
2019-03-12T03:36:27.989Z,1.37
2019-03-12T03:38:58.449Z,1.63
2019-03-12T03:41:29.336Z,1.70
2019-03-12T03:44:00.504Z,1.60
2019-03-12T03:46:31.442Z,1.67
2019-03-12T03:49:02.241Z,1.37
2019-03-12T03:51:33.112Z,1.50
2019-03-12T03:54:03.883Z,1.47
2019-03-12T03:56:34.694Z,1.40
2019-03-12T03:59:06.573Z,1.70
2019-03-12T04:01:37.125Z,2.30
2019-03-12T04:04:07.573Z,1.57
2019-03-12T04:06:38.040Z,1.60
2019-03-12T04:09:08.474Z,1.37
2019-03-12T04:11:39.427Z,1.50
2019-03-12T04:14:10.950Z,1.57
2019-03-12T04:16:41.393Z,1.27
2019-03-12T04:19:11.829Z,1.67
2019-03-12T04:21:42.669Z,1.83
2019-03-12T04:24:13.108Z,1.70
2019-03-12T04:26:43.656Z,1.60
2019-03-12T04:29:14.129Z,2.00
2019-03-12T04:31:44.606Z,1.30
2019-03-12T04:34:17.432Z,1.60
2019-03-12T04:36:49.322Z,1.83
2019-03-12T04:39:19.789Z,1.70
2019-03-12T04:41:50.224Z,1.60
2019-03-12T04:44:21.044Z,1.70
2019-03-12T04:46:51.485Z,1.70
2019-03-12T04:49:22.121Z,2.27
2019-03-12T04:51:52.545Z,1.60
2019-03-12T04:54:23.088Z,1.57
2019-03-12T04:56:53.854Z,1.70
2019-03-12T04:59:24.301Z,1.87
2019-03-12T05:01:54.751Z,2.13
2019-03-12T05:04:25.200Z,1.93
2019-03-12T05:06:55.682Z,2.20
2019-03-12T05:09:26.106Z,2.10
2019-03-12T05:11:56.541Z,2.00
2019-03-12T05:14:34.327Z,1.77
2019-03-12T05:17:33.821Z,2.00
2019-03-12T05:20:05.122Z,2.07
2019-03-12T05:22:35.714Z,2.10
2019-03-12T05:25:07.076Z,2.60
2019-03-12T05:27:37.545Z,1.97
2019-03-12T05:30:14.275Z,1.73
2019-03-12T05:32:57.005Z,2.27
2019-03-12T05:35:27.432Z,2.70
2019-03-12T05:37:57.866Z,2.13
2019-03-12T05:40:28.319Z,2.50
2019-03-12T05:42:58.772Z,2.60
2019-03-12T05:45:33.622Z,2.10
2019-03-12T05:48:04.201Z,2.10
2019-03-12T05:50:34.636Z,1.97
2019-03-12T05:53:12.870Z,2.30
2019-03-12T05:55:43.348Z,2.43
2019-03-12T05:58:13.948Z,2.77
2019-03-12T06:00:44.503Z,2.50
2019-03-12T06:03:15.051Z,1.93
2019-03-12T06:05:45.497Z,2.90
2019-03-12T06:08:16.354Z,2.40
2019-03-12T06:10:46.858Z,2.43
2019-03-12T06:13:17.400Z,2.20
2019-03-12T06:15:48.329Z,2.33
2019-03-12T06:18:19.896Z,2.20
2019-03-12T06:20:50.335Z,2.67
2019-03-12T06:23:21.498Z,2.30
2019-03-12T06:25:51.937Z,2.20
2019-03-12T06:28:23.202Z,2.30
2019-03-12T06:31:05.053Z,2.20
2019-03-12T10:32:10.909Z,1.60
2019-03-12T10:34:58.057Z,1.57
2019-03-12T10:37:46.282Z,1.50
2019-03-12T10:40:54.318Z,1.50
2019-03-12T10:43:46.441Z,1.37
2019-03-12T10:46:37.250Z,1.47
2019-03-12T10:49:07.845Z,1.60
2019-03-12T10:51:38.300Z,1.50
2019-03-12T10:54:08.765Z,1.20
2019-03-12T10:56:39.239Z,1.70
2019-03-12T10:59:09.760Z,1.37
2019-03-12T11:01:40.570Z,1.57
2019-03-12T11:04:11.696Z,1.60
2019-03-12T11:06:42.314Z,1.47
2019-03-12T11:09:12.790Z,1.60
2019-03-12T11:11:43.323Z,1.43
2019-03-12T11:14:14.129Z,1.50
2019-03-12T11:16:45.114Z,1.67
2019-03-12T11:19:16.617Z,1.40
2019-03-12T11:21:47.094Z,1.40
2019-03-12T11:24:17.574Z,1.40
2019-03-12T11:26:48.233Z,1.47
2019-03-12T11:29:18.783Z,1.20
2019-03-12T11:31:49.266Z,1.60
2019-03-12T11:34:19.721Z,1.27
2019-03-12T11:36:50.229Z,1.37
2019-03-12T11:39:20.702Z,1.50
2019-03-12T11:41:51.163Z,1.40
2019-03-12T11:44:21.734Z,1.40
2019-03-12T11:46:52.474Z,1.40
2019-03-12T11:49:23.228Z,1.63
2019-03-12T11:51:53.984Z,1.43
2019-03-12T11:54:24.436Z,1.57
2019-03-12T11:56:54.942Z,1.70
2019-03-12T11:59:26.037Z,1.20
2019-03-12T12:01:57.826Z,1.30
2019-03-12T12:04:28.281Z,1.30
2019-03-12T12:06:58.780Z,1.37
2019-03-12T12:09:29.354Z,1.37
2019-03-12T12:11:59.945Z,1.60
2019-03-12T12:14:31.677Z,1.70
2019-03-12T12:17:02.284Z,1.60
2019-03-12T12:19:32.674Z,1.47
2019-03-12T12:22:03.261Z,1.40
2019-03-12T12:24:33.849Z,1.53
2019-03-12T12:27:04.830Z,1.90
2019-03-12T12:29:35.272Z,1.30
2019-03-12T12:32:05.840Z,1.77
2019-03-12T12:34:36.545Z,1.33
2019-03-12T12:37:07.007Z,1.43
2019-03-12T12:39:37.547Z,1.33
2019-03-12T12:42:08.028Z,1.37
2019-03-12T12:44:38.517Z,1.50
2019-03-12T12:47:09.353Z,1.43
2019-03-12T12:49:39.808Z,1.20
2019-03-12T12:52:11.669Z,1.70
2019-03-12T12:54:42.522Z,1.80
2019-03-12T12:57:13.303Z,1.60
2019-03-12T12:59:43.750Z,1.60
2019-03-12T13:02:14.597Z,1.40
2019-03-12T13:04:45.040Z,1.57
2019-03-12T13:07:15.706Z,1.40
2019-03-12T13:09:46.790Z,1.40
2019-03-12T13:12:17.256Z,1.60
2019-03-12T13:14:47.675Z,1.30
2019-03-12T13:17:18.410Z,1.50
2019-03-12T13:19:48.910Z,1.20
2019-03-12T13:22:19.361Z,1.53
2019-03-12T13:24:50.101Z,1.60
2019-03-12T13:27:20.669Z,1.80
2019-03-12T13:29:51.219Z,1.37
2019-03-12T13:32:21.730Z,1.63
2019-03-12T13:34:52.342Z,1.33
2019-03-12T13:37:22.825Z,1.60
2019-03-12T13:39:53.290Z,1.60
2019-03-12T13:42:23.781Z,1.60
2019-03-12T13:44:54.388Z,1.90
2019-03-12T13:47:28.719Z,1.50
2019-03-12T13:49:57.752Z,2.00
2019-03-12T13:52:28.565Z,1.50
2019-03-12T13:54:59.486Z,1.47
2019-03-12T13:57:29.920Z,1.23
2019-03-12T14:00:00.453Z,1.57
2019-03-12T14:02:30.988Z,1.73
2019-03-12T14:05:01.440Z,1.63
2019-03-12T14:07:31.888Z,1.40
2019-03-12T14:10:02.348Z,1.63
2019-03-12T14:12:33.242Z,1.80
2019-03-12T14:15:03.985Z,1.50
2019-03-12T14:17:34.820Z,1.50
2019-03-12T14:20:27.257Z,1.60
2019-03-12T14:22:57.729Z,1.70
2019-03-12T14:25:28.162Z,1.30
2019-03-12T14:27:58.797Z,1.40
2019-03-12T14:30:29.633Z,2.07
2019-03-12T14:33:00.168Z,2.37
2019-03-12T14:35:30.630Z,2.63
2019-03-12T14:38:01.121Z,1.60
2019-03-12T14:40:31.627Z,1.37
2019-03-12T14:43:02.125Z,1.60
2019-03-12T14:45:33.817Z,1.20
2019-03-12T14:48:04.664Z,1.40
2019-03-12T14:50:35.514Z,1.30
2019-03-12T14:53:21.039Z,1.50
2019-03-12T14:55:40.570Z,1.60
2019-03-12T14:58:11.017Z,1.60
2019-03-12T15:00:53.198Z,1.33
2019-03-12T15:03:23.881Z,1.70
2019-03-12T15:05:54.323Z,1.30
2019-03-12T15:08:24.805Z,1.20
2019-03-12T15:10:56.424Z,1.30
2019-03-12T15:13:27.654Z,1.40
2019-03-12T15:15:58.104Z,1.47
2019-03-12T15:18:28.654Z,1.63
2019-03-12T15:20:59.088Z,1.50
2019-03-12T15:23:29.590Z,1.63
2019-03-12T15:26:00.085Z,1.40
2019-03-12T15:28:30.540Z,1.40
2019-03-12T15:31:02.446Z,1.10
2019-03-12T15:33:34.433Z,1.47
2019-03-12T15:36:04.905Z,1.40
2019-03-12T15:38:35.332Z,1.67
2019-03-12T15:41:05.759Z,1.50
2019-03-12T15:43:36.212Z,1.17
2019-03-12T15:46:06.749Z,1.43
2019-03-12T15:48:37.218Z,1.37
2019-03-12T15:51:07.654Z,1.50
2019-03-12T15:53:38.117Z,2.00
2019-03-12T15:56:08.922Z,1.60
2019-03-12T15:58:39.374Z,1.50
2019-03-12T16:01:10.093Z,1.50
2019-03-12T16:03:42.036Z,1.50
2019-03-12T16:06:12.668Z,1.53
2019-03-12T16:08:43.109Z,1.30
2019-03-12T16:11:13.564Z,1.27
2019-03-12T16:13:44.053Z,1.30
2019-03-12T16:16:14.487Z,1.50
2019-03-12T16:18:44.921Z,1.30
2019-03-12T16:21:15.442Z,1.20
2019-03-12T16:23:45.988Z,1.20
2019-03-12T16:26:16.427Z,1.50
2019-03-12T16:28:46.866Z,1.73
2019-03-12T16:31:17.326Z,1.67
2019-03-12T16:33:47.760Z,1.67
2019-03-12T16:36:18.194Z,1.80
2019-03-12T16:38:48.666Z,2.00
2019-03-12T16:41:19.152Z,1.50
2019-03-12T16:43:49.674Z,1.83
2019-03-12T16:46:20.172Z,2.13
2019-03-12T16:48:50.838Z,2.13
2019-03-12T16:51:21.270Z,1.97
2019-03-12T16:53:51.683Z,1.67
2019-03-12T16:56:22.382Z,1.80
2019-03-12T16:58:52.845Z,2.17
2019-03-12T17:01:23.292Z,1.80
2019-03-12T17:03:53.792Z,1.87
2019-03-12T17:06:24.431Z,1.80
2019-03-12T17:08:56.028Z,1.70
2019-03-12T17:11:26.533Z,1.90
2019-03-12T17:13:56.972Z,1.80
2019-03-12T17:16:27.497Z,1.97
2019-03-12T17:18:58.413Z,1.90
2019-03-12T17:21:28.926Z,1.70
2019-03-12T17:23:59.452Z,2.13
2019-03-12T17:26:30.096Z,2.00
2019-03-12T17:29:00.596Z,2.00
2019-03-12T17:31:31.794Z,1.73
2019-03-12T17:34:02.481Z,1.77
2019-03-12T17:36:32.916Z,2.07
2019-03-12T17:39:04.621Z,2.13
2019-03-12T17:41:37.236Z,2.13
2019-03-12T17:44:07.850Z,2.40
2019-03-12T17:46:38.408Z,2.37
2019-03-12T17:49:08.897Z,2.20
2019-03-12T17:51:39.759Z,2.13
2019-03-12T17:54:10.657Z,2.10
2019-03-12T17:56:41.120Z,2.37
2019-03-12T17:59:11.617Z,1.90
2019-03-12T18:01:42.288Z,2.40
2019-03-12T18:04:12.840Z,2.70
2019-03-12T18:06:43.326Z,2.43
2019-03-12T18:09:14.918Z,2.20
2019-03-12T18:11:45.465Z,2.47
2019-03-12T18:14:15.985Z,2.60
2019-03-12T18:16:46.472Z,2.63
2019-03-12T18:19:17.109Z,2.57
2019-03-12T18:21:47.797Z,2.73
2019-03-12T18:24:18.720Z,2.43
2019-03-12T18:26:49.388Z,2.43
2019-03-12T18:29:20.317Z,2.53
2019-03-12T18:31:50.910Z,2.30
2019-03-12T18:34:22.587Z,2.50
2019-03-12T18:36:53.349Z,1.97
2019-03-12T18:39:23.877Z,2.60
2019-03-12T18:41:55.892Z,2.62
2019-03-12T18:44:26.565Z,2.70
2019-03-12T18:46:57.001Z,2.60
2019-03-12T18:49:27.482Z,2.60
2019-03-12T18:51:58.473Z,2.27
2019-03-12T18:54:30.315Z,2.60
2019-03-12T18:57:00.813Z,2.30
2019-03-12T18:59:31.456Z,2.20
2019-03-12T19:02:02.058Z,2.22
2019-03-12T19:04:32.659Z,2.55
2019-03-12T19:07:03.117Z,2.27
2019-03-12T19:09:33.580Z,2.20
2019-03-12T19:12:04.218Z,2.40
2019-03-12T19:14:34.866Z,2.40
2019-03-12T19:17:05.717Z,2.58
2019-03-12T19:19:36.317Z,2.50
2019-03-12T19:22:06.760Z,1.98
2019-03-12T19:24:38.893Z,2.27
2019-03-12T19:27:09.736Z,2.08
2019-03-12T19:29:40.389Z,2.50
2019-03-12T19:32:20.560Z,2.30
2019-03-12T19:34:51.449Z,2.15
2019-03-12T19:37:22.326Z,2.40
2019-03-12T19:39:53.114Z,2.17
2019-03-12T19:42:23.648Z,2.30
2019-03-12T19:44:54.541Z,2.30
2019-03-12T19:47:25.405Z,2.00
2019-03-12T19:49:55.987Z,2.30
2019-03-12T19:52:27.099Z,2.20
2019-03-12T19:54:57.848Z,2.30
2019-03-12T19:57:28.565Z,2.20
2019-03-12T19:59:59.599Z,2.00
2019-03-12T20:02:30.740Z,2.10
2019-03-12T20:05:01.755Z,2.30
2019-03-12T20:07:33.554Z,2.10
2019-03-12T20:10:45.055Z,2.10
2019-03-12T20:14:15.241Z,2.13
2019-03-12T20:17:41.406Z,2.10
2019-03-12T20:21:23.982Z,2.08
2019-03-12T20:24:57.348Z,2.03
2019-03-12T20:28:19.495Z,2.27
2019-03-12T20:32:04.791Z,2.15
2019-03-12T20:35:27.553Z,2.30
2019-03-12T20:38:41.957Z,2.30
2019-03-12T20:41:51.263Z,2.10
2019-03-12T20:45:12.244Z,2.37
2019-03-12T20:48:21.109Z,2.10
2019-03-12T20:51:30.125Z,2.33
2019-03-12T20:54:35.304Z,1.95
2019-03-12T20:57:42.332Z,2.40
2019-03-12T21:01:13.802Z,2.43
2019-03-12T21:04:13.884Z,2.70
2019-03-12T21:07:20.369Z,2.37
2019-03-12T21:10:27.198Z,2.37
2019-03-12T21:13:54.381Z,2.30
2019-03-12T21:17:11.077Z,2.40
2019-03-12T21:20:36.852Z,2.20
2019-03-12T21:23:39.325Z,2.30
2019-03-12T21:26:49.547Z,2.30
2019-03-12T21:29:42.360Z,3.00
2019-03-12T21:32:15.008Z,2.80
2019-03-12T21:34:45.833Z,2.30
2019-03-12T21:37:17.512Z,2.20
2019-03-12T21:39:55.174Z,1.87
2019-03-12T21:42:21.358Z,2.10
2019-03-12T21:44:51.950Z,2.20
2019-03-12T21:47:22.862Z,2.05
2019-03-12T21:49:53.367Z,2.15
2019-03-12T21:52:24.871Z,2.10
2019-03-12T21:54:55.460Z,2.02
2019-03-12T21:57:26.008Z,2.23
2019-03-12T21:59:56.650Z,2.30
2019-03-12T22:02:27.270Z,2.30
2019-03-12T22:04:58.288Z,2.10
2019-03-12T22:07:29.885Z,2.10
2019-03-12T22:10:00.379Z,2.00
2019-03-12T22:12:31.054Z,2.00
2019-03-12T22:15:01.545Z,2.02
2019-03-12T22:17:32.480Z,1.80
2019-03-12T22:20:02.924Z,2.20
2019-03-12T22:22:59.433Z,1.90
2019-03-12T22:25:29.988Z,2.00
2019-03-12T22:28:00.445Z,2.30
2019-03-12T22:30:31.253Z,2.22
2019-03-12T22:33:01.816Z,1.95
2019-03-12T22:35:32.776Z,2.27
2019-03-12T22:38:03.272Z,2.20
2019-03-12T22:40:33.834Z,2.20
2019-03-12T22:43:04.580Z,2.47
2019-03-12T22:45:35.089Z,1.98
2019-03-12T22:48:05.725Z,2.22
2019-03-12T22:50:36.363Z,2.20
2019-03-12T22:53:06.870Z,2.10
2019-03-12T22:55:37.387Z,2.00
2019-03-12T22:58:07.994Z,2.00
2019-03-12T23:00:57.500Z,2.10
2019-03-12T23:03:45.888Z,1.92
2019-03-12T23:06:34.397Z,1.95
2019-03-12T23:09:23.563Z,2.08
2019-03-12T23:11:55.673Z,2.00
2019-03-12T23:14:26.314Z,2.10
2019-03-12T23:16:56.837Z,2.02
2019-03-12T23:19:27.349Z,1.90
2019-03-12T23:21:57.985Z,1.70
2019-03-12T23:24:29.679Z,1.60
2019-03-12T23:27:00.368Z,1.80
2019-03-12T23:29:30.878Z,2.03
2019-03-12T23:32:01.416Z,1.47
2019-03-12T23:34:31.840Z,1.50
2019-03-12T23:37:03.286Z,1.70
2019-03-12T23:39:33.740Z,2.10
2019-03-12T23:42:04.380Z,1.70
2019-03-12T23:44:34.947Z,1.77
2019-03-12T23:47:05.564Z,1.60
2019-03-12T23:49:36.112Z,1.70
2019-03-12T23:52:06.770Z,1.93
2019-03-12T23:54:37.741Z,1.77
2019-03-12T23:57:08.329Z,1.60
2019-03-12T23:59:39.875Z,1.77
